< < Back
Terminal Aerodrome Forecast


Current Version              Previous Versions:   1  2  3  4  5  6  7  8  9  

Terminal Aerodrome Forecast

452
FTUS42 KILM 280249 AAA
TAFILM
TAF AMD
KILM 280249Z 2803/2824 01010KT P6SM SCT010 OVC035
     FM280600 35010KT 6SM -RA SCT015 OVC045
      TEMPO 2808/2811 BKN015
     FM281200 32011G19KT P6SM SCT020 SCT060 SCT150=



Latest METAR

596
SAUS70 KWBC 281800 RRK
MTRILM
METAR KILM 281753Z AUTO 29015KT 10SM BKN060 09/M01 A3002 RMK AO2 SLP167
60000 T00941011 10106 20044 51001


USA.gov is the U.S. government's official web portal to all federal, state and local government web resources and services.